Bridgehampton, NY (11932)

5:42 AM EDT on August 29, 2015 (GMT -0400)
WLNG Radio | | Change Station
CLOSE
Current Station
Personal Weather Station
Location: Sag Harbor, NY
Elevation: 7 ft
Nearby Weather Stations

Elev 7 ft 41.00 °N, 72.31 °W | Updated 2 seconds ago

Clear
Clear
63.4 °F
Feels Like 63.4 °F
N
2.0
Wind Variable Wind from ESE
Gusts 2.0 mph

Today
High -- | Low -- °F
--% Chance of Precip.
Yesterday
High -- | Low -- °F
Precip. -- in
6:12 AM 7:26 PM
Full, 100% visible
Pressure 30.20 in
Visibility 8.0 miles
Clouds Scattered Clouds 200 ft
Dew Point 62 °F
Humidity 96%
Rainfall 0.00 in
Snow Depth Not available.
UV 0 out of 12
Pollen 9.70 out of 12
Air Quality Not available.
Flu Activity Not available.
METAR KFOK 290853Z 00000KT 8SM SCT002 11/09 A3020 RMK AO2 SLP225 T01110094 53000
Pressure 30.20 in
Visibility 8.0 miles
Clouds Scattered Clouds 200 ft
Dew Point 62 °F
Humidity 96%
Rainfall 0.00 in
Snow Depth Not available.
UV 0 out of 12
Pollen 9.70 out of 12
Air Quality Not available.
Flu Activity Not available.
METAR KFOK 290853Z 00000KT 8SM SCT002 11/09 A3020 RMK AO2 SLP225 T01110094 53000

10-Day Weather Forecast

×

Almanac

Astronomy

Aug. 29, 2015 Rise Set
Actual Time
Civil Twilight
Nautical Twilight
Astronomical Twilight
Moon
Length of Visible Light
Length of Day
Tomorrow will be .
, % of the Moon is Illuminated

Today's Extremes

State Highs State Lows

Community

WunderPhotos

Upload Photos

1,850,634 photos uploaded!

WunderBlogs® & News

Nearby

Air Quality

  Air Quality AQ Index Pollutant
Not available.

Snow Depth

Station Depth Elevation

Earthquake Activity

City Distance Mag. Time & Date
Minimum magnitude displayed is 2.5.

Coastal Water Temperatures

Place Temperature

Stations

Nearby Weather Stations

Station Location Temp. Windchill Dew Point Humidity Wind Precip. Elev Updated Type